createdAt,value
2022-08-18T00:02:04.556Z,17.69
2022-08-18T00:04:49.043Z,17.89
2022-08-18T00:07:22.091Z,17.75
2022-08-18T00:09:52.530Z,17.75
2022-08-18T00:12:26.258Z,17.62
2022-08-18T00:14:57.536Z,17.62
2022-08-18T00:17:28.125Z,17.56
2022-08-18T00:19:57.521Z,17.77
2022-08-18T00:22:26.977Z,18.03
2022-08-18T00:24:58.797Z,18.07
2022-08-18T00:27:31.244Z,17.92
2022-08-18T00:30:02.805Z,17.89
2022-08-18T00:32:36.320Z,17.74
2022-08-18T00:35:13.687Z,17.68
2022-08-18T00:37:43.980Z,17.66
2022-08-18T00:40:17.996Z,17.52
2022-08-18T00:42:51.801Z,17.33
2022-08-18T00:45:26.194Z,17.24
2022-08-18T00:47:57.962Z,17.50
2022-08-18T00:50:33.995Z,17.68
2022-08-18T00:53:10.299Z,17.67
2022-08-18T00:55:44.316Z,17.44
2022-08-18T00:58:30.467Z,17.41
2022-08-18T01:01:04.829Z,17.28
2022-08-18T01:03:39.894Z,17.24
2022-08-18T01:06:17.417Z,17.39
2022-08-18T01:08:46.588Z,17.40
2022-08-18T01:11:15.793Z,17.60
2022-08-18T01:13:45.515Z,17.85
2022-08-18T01:16:28.562Z,17.79
2022-08-18T01:19:16.978Z,17.46
2022-08-18T01:21:58.697Z,17.33
2022-08-18T01:24:52.331Z,17.33
2022-08-18T01:27:21.811Z,17.21
2022-08-18T01:29:52.079Z,17.20
2022-08-18T01:32:24.587Z,17.11
2022-08-18T01:34:54.657Z,17.11
2022-08-18T01:37:25.559Z,16.83
2022-08-18T01:41:22.759Z,16.84
2022-08-18T01:42:45.742Z,16.75
2022-08-18T01:45:16.861Z,16.93
2022-08-18T01:47:48.056Z,16.99
2022-08-18T01:50:18.296Z,17.14
2022-08-18T01:52:47.501Z,16.92
2022-08-18T01:55:18.288Z,16.87
2022-08-18T01:57:48.290Z,16.87
2022-08-18T02:00:19.860Z,16.91
2022-08-18T02:02:58.011Z,17.02
2022-08-18T02:05:39.471Z,16.95
2022-08-18T02:08:09.474Z,16.93
2022-08-18T02:10:41.041Z,16.94
2022-08-18T02:13:10.613Z,17.03
2022-08-18T02:15:41.995Z,17.00
2022-08-18T02:18:30.422Z,17.04
2022-08-18T02:21:10.781Z,17.06
2022-08-18T02:23:40.730Z,17.13
2022-08-18T02:26:20.427Z,17.15
2022-08-18T02:28:49.615Z,17.13
2022-08-18T02:31:22.417Z,17.05
2022-08-18T02:33:52.508Z,17.07
2022-08-18T02:36:25.300Z,16.99
2022-08-18T02:38:59.310Z,16.96
2022-08-18T02:41:31.398Z,16.90
2022-08-18T02:44:00.726Z,16.81
2022-08-18T02:46:31.271Z,16.72
2022-08-18T02:49:01.043Z,16.77
2022-08-18T02:51:30.236Z,16.78
2022-08-18T02:54:00.283Z,16.81
2022-08-18T02:56:41.110Z,16.79
2022-08-18T02:59:15.534Z,16.88
2022-08-18T03:01:48.046Z,16.63
2022-08-18T03:04:28.076Z,16.97
2022-08-18T03:07:01.465Z,16.69
2022-08-18T03:09:32.231Z,16.60
2022-08-18T03:12:03.277Z,16.37
2022-08-18T03:14:32.404Z,16.35
2022-08-18T03:17:01.781Z,16.32
2022-08-18T03:19:31.404Z,16.12
2022-08-18T03:22:02.901Z,16.38
2022-08-18T03:24:33.501Z,16.39
2022-08-18T03:27:07.652Z,16.08
2022-08-18T03:29:37.608Z,16.12
2022-08-18T03:32:09.259Z,16.06
2022-08-18T03:34:38.888Z,16.01
2022-08-18T03:37:08.049Z,16.00
2022-08-18T03:39:37.481Z,15.96
2022-08-18T03:42:08.423Z,16.03
2022-08-18T03:44:38.172Z,16.10
2022-08-18T03:47:11.932Z,16.19
2022-08-18T03:49:41.875Z,16.20
2022-08-18T03:52:11.876Z,16.20
2022-08-18T03:54:41.290Z,16.11
2022-08-18T03:57:13.513Z,16.09
2022-08-18T03:59:43.793Z,16.15
2022-08-18T04:02:13.331Z,16.23
2022-08-18T04:04:43.186Z,16.30
2022-08-18T04:07:17.297Z,16.18
2022-08-18T04:09:47.101Z,16.32
2022-08-18T04:12:18.027Z,16.24
2022-08-18T04:14:50.164Z,16.26
2022-08-18T04:17:24.614Z,16.24
2022-08-18T04:19:54.855Z,16.20
2022-08-18T04:22:25.029Z,16.21
2022-08-18T04:24:55.717Z,16.04
2022-08-18T04:27:29.708Z,16.29
2022-08-18T04:29:59.140Z,16.19
2022-08-18T04:32:29.853Z,16.24
2022-08-18T04:35:02.787Z,16.32
2022-08-18T04:37:33.176Z,16.57
2022-08-18T04:40:09.066Z,16.55
2022-08-18T04:42:40.216Z,16.58
2022-08-18T04:45:13.263Z,16.68
2022-08-18T04:47:43.181Z,16.79
2022-08-18T04:50:14.040Z,16.86
2022-08-18T04:53:02.228Z,17.19
2022-08-18T04:55:31.523Z,17.21
2022-08-18T04:58:02.338Z,17.21
2022-08-18T05:00:31.640Z,17.33
2022-08-18T05:03:00.760Z,17.61
2022-08-18T05:05:30.008Z,17.66
2022-08-18T05:07:59.171Z,17.81
2022-08-18T05:10:28.408Z,17.79
2022-08-18T05:12:57.620Z,17.75
2022-08-18T05:15:28.137Z,17.88
2022-08-18T05:17:57.428Z,18.03
2022-08-18T05:20:27.995Z,18.09
2022-08-18T05:22:57.437Z,18.18
2022-08-18T05:25:26.498Z,18.36
2022-08-18T05:27:55.592Z,18.41
2022-08-18T05:30:24.737Z,18.60
2022-08-18T05:32:56.025Z,18.71
2022-08-18T05:35:31.985Z,18.88
2022-08-18T05:38:27.435Z,18.81
2022-08-18T05:41:14.157Z,18.77
2022-08-18T05:43:51.773Z,18.88
2022-08-18T05:46:28.432Z,19.03
2022-08-18T05:48:58.994Z,19.14
2022-08-18T05:51:33.752Z,19.21
2022-08-18T05:54:21.960Z,19.29
2022-08-18T05:56:55.527Z,19.53
2022-08-18T05:59:29.207Z,19.67
2022-08-18T06:02:05.512Z,19.97
2022-08-18T06:04:49.257Z,20.14
2022-08-18T06:07:33.370Z,20.34
2022-08-18T06:10:05.820Z,20.47
2022-08-18T06:12:43.426Z,20.65
2022-08-18T06:15:21.572Z,20.80
2022-08-18T06:18:27.881Z,21.03
2022-08-18T06:21:36.894Z,21.14
2022-08-18T06:24:18.519Z,21.40
2022-08-18T06:26:56.257Z,21.64
2022-08-18T06:29:47.927Z,21.87
2022-08-18T06:32:28.409Z,22.15
2022-08-18T06:35:18.289Z,22.40
2022-08-18T06:38:24.084Z,22.50
2022-08-18T06:41:04.439Z,22.63
2022-08-18T06:43:35.441Z,22.71
2022-08-18T06:46:14.977Z,22.81
2022-08-18T06:48:55.730Z,23.00
2022-08-18T06:51:29.509Z,23.27
2022-08-18T06:54:04.229Z,23.45
2022-08-18T06:56:49.295Z,23.65
2022-08-18T06:59:24.711Z,23.75
2022-08-18T07:02:02.203Z,23.99
2022-08-18T07:04:40.829Z,24.20
2022-08-18T07:07:39.868Z,24.40
2022-08-18T07:10:34.578Z,24.60
2022-08-18T07:13:26.928Z,24.81
2022-08-18T07:16:18.625Z,25.00
2022-08-18T07:18:55.767Z,25.19
2022-08-18T07:21:30.797Z,25.29
2022-08-18T07:24:23.784Z,25.40
2022-08-18T07:27:08.492Z,25.62
2022-08-18T07:29:41.572Z,25.78
2022-08-18T07:32:21.514Z,25.97
2022-08-18T07:34:58.304Z,26.14
2022-08-18T07:37:34.300Z,26.34
2022-08-18T07:40:13.376Z,26.49
2022-08-18T07:43:02.009Z,26.63
2022-08-18T07:45:38.151Z,26.86
2022-08-18T07:48:37.008Z,27.07
2022-08-18T07:51:16.604Z,27.32
2022-08-18T07:53:57.625Z,27.52
2022-08-18T07:56:43.000Z,27.78
2022-08-18T07:59:26.756Z,28.01
2022-08-18T08:02:14.667Z,28.30
2022-08-18T08:04:52.169Z,28.54
2022-08-18T08:07:26.090Z,28.66
2022-08-18T08:10:14.080Z,28.89
2022-08-18T08:12:58.371Z,29.01
2022-08-18T08:15:50.054Z,29.24
2022-08-18T08:18:31.198Z,29.54
2022-08-18T08:21:06.731Z,29.85
2022-08-18T08:23:45.660Z,30.05
2022-08-18T08:26:43.248Z,30.20
2022-08-18T08:29:26.543Z,30.22
2022-08-18T08:32:04.064Z,30.39
2022-08-18T08:34:42.527Z,30.59
2022-08-18T08:37:19.035Z,30.65
2022-08-18T08:39:57.875Z,30.76
2022-08-18T08:42:56.756Z,30.82
2022-08-18T08:45:30.928Z,30.93
2022-08-18T08:48:09.603Z,30.89
2022-08-18T08:50:46.388Z,31.03
2022-08-18T08:53:24.312Z,31.21
2022-08-18T08:56:02.214Z,31.39
2022-08-18T08:58:41.273Z,31.56
2022-08-18T09:01:17.245Z,31.50
2022-08-18T09:03:56.951Z,31.56
2022-08-18T09:06:39.199Z,31.65
2022-08-18T09:09:35.533Z,31.68
2022-08-18T09:12:39.808Z,31.91
2022-08-18T09:15:39.014Z,31.99
2022-08-18T09:18:47.749Z,32.01
2022-08-18T09:21:30.862Z,32.14
2022-08-18T09:24:13.822Z,32.21
2022-08-18T09:26:53.103Z,32.44
2022-08-18T09:29:28.009Z,32.61
2022-08-18T09:32:40.681Z,32.84
2022-08-18T09:35:28.790Z,33.09
2022-08-18T09:38:26.049Z,33.26
2022-08-18T09:41:17.538Z,33.46
2022-08-18T09:44:17.779Z,33.56
2022-08-18T09:46:57.487Z,33.75
2022-08-18T09:53:02.478Z,33.49
2022-08-18T09:56:01.668Z,33.47
2022-08-18T09:58:53.917Z,33.49
2022-08-18T10:01:41.880Z,33.48
2022-08-18T10:04:32.772Z,33.73
2022-08-18T10:07:37.034Z,33.75
2022-08-18T10:11:01.479Z,33.73
2022-08-18T10:13:25.471Z,33.77
2022-08-18T10:16:10.819Z,34.02
2022-08-18T10:19:10.674Z,34.24
2022-08-18T10:22:09.949Z,34.51
2022-08-18T10:24:47.656Z,34.16
2022-08-18T10:27:58.232Z,34.08
2022-08-18T10:31:09.579Z,34.00
2022-08-18T10:34:16.457Z,34.20
2022-08-18T10:36:54.374Z,34.36
2022-08-18T10:39:46.482Z,34.54
2022-08-18T10:42:28.559Z,34.75
2022-08-18T10:45:11.153Z,34.67
2022-08-18T10:47:42.628Z,34.76
2022-08-18T10:50:22.561Z,34.77
2022-08-18T10:53:39.081Z,35.14
2022-08-18T10:56:05.263Z,35.12
2022-08-18T10:58:52.235Z,34.94
2022-08-18T11:01:53.244Z,35.34
2022-08-18T11:04:33.487Z,36.40
2022-08-18T11:07:10.849Z,37.53
2022-08-18T11:09:50.828Z,38.43
2022-08-18T11:16:10.293Z,38.14
2022-08-18T11:18:49.097Z,38.86
2022-08-18T11:21:42.580Z,39.18
2022-08-18T11:24:18.481Z,39.23
2022-08-18T11:26:53.125Z,37.86
2022-08-18T11:32:25.450Z,37.88
2022-08-18T11:35:14.339Z,39.35
2022-08-18T11:37:53.725Z,39.12
2022-08-18T11:43:29.736Z,38.72
2022-08-18T11:46:04.827Z,39.52
2022-08-18T11:48:53.237Z,40.07
2022-08-18T11:51:28.616Z,40.71
2022-08-18T11:54:02.145Z,41.10
2022-08-18T11:56:35.699Z,41.35
2022-08-18T11:59:11.648Z,42.45
2022-08-18T12:01:51.510Z,43.40
2022-08-18T12:04:30.099Z,43.78
2022-08-18T12:07:08.482Z,43.10
2022-08-18T12:12:35.889Z,39.68
2022-08-18T12:15:29.628Z,38.84
2022-08-18T12:21:03.206Z,37.58
2022-08-18T12:23:39.162Z,37.52
2022-08-18T12:26:27.121Z,38.34
2022-08-18T12:29:08.655Z,38.69
2022-08-18T12:31:42.504Z,39.14
2022-08-18T12:34:24.936Z,39.70
2022-08-18T12:36:58.632Z,40.30
2022-08-18T12:39:30.481Z,41.09
2022-08-18T12:42:02.129Z,41.81
2022-08-18T12:44:31.303Z,41.61
2022-08-18T12:47:02.181Z,42.06
2022-08-18T12:49:32.789Z,43.35
2022-08-18T12:52:03.978Z,44.23
2022-08-18T12:54:36.025Z,44.35
2022-08-18T12:57:51.617Z,44.94
2022-08-18T13:00:18.630Z,44.50
2022-08-18T13:02:48.375Z,43.13
2022-08-18T13:05:19.659Z,43.10
2022-08-18T13:07:58.786Z,43.03
2022-08-18T13:10:42.936Z,42.24
2022-08-18T13:13:17.463Z,39.30
2022-08-18T13:15:57.803Z,39.85
2022-08-18T13:18:29.458Z,40.12
2022-08-18T13:20:58.882Z,39.95
2022-08-18T13:23:29.505Z,40.09
2022-08-18T13:26:03.028Z,40.19
2022-08-18T13:28:36.124Z,40.20
2022-08-18T13:31:23.757Z,40.37
2022-08-18T13:33:58.237Z,39.76
2022-08-18T13:36:46.055Z,38.71
2022-08-18T13:39:17.259Z,38.29
2022-08-18T13:41:51.911Z,38.00
2022-08-18T13:44:25.808Z,37.64
2022-08-18T13:46:56.423Z,38.12
2022-08-18T13:49:30.358Z,38.62
2022-08-18T13:52:01.176Z,38.95
2022-08-18T13:54:36.014Z,39.00
2022-08-18T13:57:07.504Z,39.30
2022-08-18T13:59:38.288Z,39.71
2022-08-18T14:02:15.837Z,40.00
2022-08-18T14:04:48.466Z,39.94
2022-08-18T14:07:27.338Z,38.95
2022-08-18T14:09:56.925Z,38.49
2022-08-18T14:12:33.079Z,37.90
2022-08-18T14:15:02.831Z,37.33
2022-08-18T14:17:32.057Z,37.01
2022-08-18T14:20:21.581Z,36.74
2022-08-18T14:23:10.512Z,36.26
2022-08-18T14:25:57.558Z,35.64
2022-08-18T14:28:31.327Z,34.82
2022-08-18T14:31:02.414Z,34.32
2022-08-18T14:33:34.605Z,32.85
2022-08-18T14:36:19.512Z,30.83
2022-08-18T14:38:51.489Z,29.96
2022-08-18T14:41:27.168Z,29.28
2022-08-18T14:44:12.275Z,28.69
2022-08-18T14:46:54.475Z,28.49
2022-08-18T14:49:29.092Z,28.33
2022-08-18T14:52:00.411Z,28.12
2022-08-18T14:54:32.369Z,27.79
2022-08-18T14:57:03.168Z,27.69
2022-08-18T14:59:34.661Z,27.70
2022-08-18T15:02:13.148Z,27.52
2022-08-18T15:04:55.804Z,27.19
2022-08-18T15:07:28.357Z,27.10
2022-08-18T15:10:16.338Z,26.53
2022-08-18T15:12:46.138Z,26.25
2022-08-18T15:15:18.270Z,26.43
2022-08-18T15:17:50.250Z,26.45
2022-08-18T15:20:29.627Z,26.43
2022-08-18T15:23:24.952Z,26.32
2022-08-18T15:25:58.872Z,26.38
2022-08-18T15:28:28.346Z,26.37
2022-08-18T15:33:50.138Z,26.51
2022-08-18T15:36:29.055Z,26.54
2022-08-18T15:38:59.319Z,26.71
2022-08-18T15:41:33.071Z,26.68
2022-08-18T15:44:06.528Z,26.70
2022-08-18T15:46:39.980Z,26.57
2022-08-18T15:49:15.032Z,26.73
2022-08-18T15:51:45.311Z,26.78
2022-08-18T15:54:14.942Z,26.74
2022-08-18T15:56:44.131Z,26.71
2022-08-18T15:59:13.260Z,26.73
2022-08-18T16:01:46.289Z,26.71
2022-08-18T16:04:18.979Z,26.71
2022-08-18T16:06:51.164Z,26.72
2022-08-18T16:09:21.791Z,26.74
2022-08-18T16:11:51.019Z,26.76
2022-08-18T16:14:20.070Z,26.92
2022-08-18T16:16:50.551Z,27.39
2022-08-18T16:19:19.716Z,28.26
2022-08-18T16:21:56.713Z,29.36
2022-08-18T16:24:25.831Z,30.63
2022-08-18T16:26:56.023Z,31.30
2022-08-18T16:29:25.184Z,31.42
2022-08-18T16:31:56.108Z,31.31
2022-08-18T16:34:30.846Z,30.51
2022-08-18T16:37:00.218Z,29.70
2022-08-18T16:39:29.409Z,29.14
2022-08-18T16:41:58.597Z,28.97
2022-08-18T16:44:29.843Z,29.06
2022-08-18T16:47:01.849Z,29.21
2022-08-18T16:49:31.851Z,29.00
2022-08-18T16:52:02.092Z,28.73
2022-08-18T16:54:32.550Z,28.61
2022-08-18T16:57:01.707Z,28.56
2022-08-18T16:59:48.362Z,28.53
2022-08-18T17:02:32.732Z,28.60
2022-08-18T17:05:03.086Z,29.24
2022-08-18T17:07:35.614Z,29.96
2022-08-18T17:10:07.351Z,30.42
2022-08-18T17:12:36.607Z,30.54
2022-08-18T17:15:08.292Z,30.34
2022-08-18T17:17:38.846Z,29.66
2022-08-18T17:20:11.185Z,28.73
2022-08-18T17:22:41.007Z,27.92
2022-08-18T17:25:13.337Z,27.42
2022-08-18T17:27:44.488Z,26.99
2022-08-18T17:30:22.256Z,26.65
2022-08-18T17:33:00.666Z,26.30
2022-08-18T17:35:36.162Z,26.07
2022-08-18T17:38:12.227Z,25.83
2022-08-18T17:40:47.982Z,25.60
2022-08-18T17:43:20.942Z,25.20
2022-08-18T17:45:57.236Z,24.74
2022-08-18T17:48:34.082Z,24.50
2022-08-18T17:51:26.959Z,24.25
2022-08-18T17:54:01.304Z,23.76
2022-08-18T17:56:40.299Z,23.71
2022-08-18T17:59:46.041Z,23.86
2022-08-18T18:02:28.526Z,23.85
2022-08-18T18:05:00.988Z,23.69
2022-08-18T18:07:35.179Z,23.47
2022-08-18T18:10:12.740Z,23.26
2022-08-18T18:12:42.695Z,23.05
2022-08-18T18:15:15.476Z,22.85
2022-08-18T18:17:44.922Z,22.81
2022-08-18T18:20:26.076Z,22.78
2022-08-18T18:22:55.254Z,22.72
2022-08-18T18:25:34.393Z,22.52
2022-08-18T18:28:04.689Z,22.54
2022-08-18T18:30:34.098Z,22.54
2022-08-18T18:33:15.022Z,22.46
2022-08-18T18:35:57.133Z,22.26
2022-08-18T18:38:30.383Z,22.22
2022-08-18T18:41:04.088Z,22.14
2022-08-18T18:43:39.747Z,22.05
2022-08-18T18:46:32.333Z,21.93
2022-08-18T18:49:21.307Z,21.80
2022-08-18T18:52:04.672Z,21.75
2022-08-18T18:54:52.223Z,21.62
2022-08-18T18:57:32.108Z,21.69
2022-08-18T19:00:18.176Z,21.51
2022-08-18T19:03:04.772Z,21.38
2022-08-18T19:05:43.444Z,21.32
2022-08-18T19:08:28.410Z,21.14
2022-08-18T19:11:11.096Z,21.25
2022-08-18T19:13:54.194Z,21.14
2022-08-18T19:16:30.520Z,21.10
2022-08-18T19:19:37.833Z,21.00
2022-08-18T19:22:06.839Z,20.86
2022-08-18T19:24:55.067Z,20.57
2022-08-18T19:27:34.235Z,20.53
2022-08-18T19:30:09.352Z,20.48
2022-08-18T19:32:44.264Z,20.32
2022-08-18T19:35:19.724Z,20.24
2022-08-18T19:38:21.127Z,20.20
2022-08-18T19:41:00.601Z,20.42
2022-08-18T19:43:42.779Z,20.50
2022-08-18T19:46:28.414Z,20.37
2022-08-18T19:49:07.470Z,20.19
2022-08-18T19:51:40.808Z,20.18
2022-08-18T19:54:31.536Z,20.01
2022-08-18T19:57:23.719Z,19.70
2022-08-18T20:00:10.592Z,19.58
2022-08-18T20:03:22.694Z,19.54
2022-08-18T20:06:34.920Z,19.69
2022-08-18T20:09:42.095Z,19.82
2022-08-18T20:12:30.192Z,19.93
2022-08-18T20:15:03.656Z,20.00
2022-08-18T20:17:32.835Z,20.02
2022-08-18T20:20:18.275Z,20.13
2022-08-18T20:22:55.147Z,19.97
2022-08-18T20:25:47.047Z,19.85
2022-08-18T20:28:39.671Z,19.86
2022-08-18T20:31:15.135Z,19.68
2022-08-18T20:34:11.076Z,19.59
2022-08-18T20:36:44.960Z,19.43
2022-08-18T20:39:45.552Z,19.29
2022-08-18T20:42:56.371Z,19.35
2022-08-18T20:45:42.597Z,19.29
2022-08-18T20:48:30.937Z,19.50
2022-08-18T20:51:10.411Z,19.61
2022-08-18T20:54:03.536Z,19.41
2022-08-18T20:56:48.087Z,19.28
2022-08-18T20:59:22.124Z,18.97
2022-08-18T21:01:59.652Z,19.03
2022-08-18T21:04:41.242Z,19.19
2022-08-18T21:07:34.231Z,19.23
2022-08-18T21:10:14.766Z,19.22
2022-08-18T21:12:53.789Z,19.05
2022-08-18T21:15:27.878Z,18.72
2022-08-18T21:18:05.531Z,18.48
2022-08-18T21:20:36.596Z,18.42
2022-08-18T21:23:10.515Z,18.34
2022-08-18T21:25:50.489Z,18.34
2022-08-18T21:28:22.363Z,18.47
2022-08-18T21:31:42.838Z,18.52
2022-08-18T21:33:53.780Z,18.55
2022-08-18T21:36:25.707Z,18.60
2022-08-18T21:38:56.792Z,18.70
2022-08-18T21:41:44.624Z,18.60
2022-08-18T21:44:21.642Z,18.71
2022-08-18T21:46:51.927Z,18.84
2022-08-18T21:49:29.118Z,18.79
2022-08-18T21:51:58.467Z,18.90
2022-08-18T21:54:34.345Z,18.89
2022-08-18T21:57:24.733Z,18.59
2022-08-18T22:00:20.443Z,18.60
2022-08-18T22:02:52.050Z,18.75
2022-08-18T22:05:55.067Z,18.76
2022-08-18T22:08:27.008Z,18.66
2022-08-18T22:12:00.485Z,18.51
2022-08-18T22:14:54.907Z,18.59
2022-08-18T22:17:35.269Z,18.72
2022-08-18T22:20:46.547Z,18.66
2022-08-18T22:23:55.519Z,18.62
2022-08-18T22:26:28.927Z,18.69
2022-08-18T22:29:03.934Z,18.90
2022-08-18T22:31:36.581Z,18.91
2022-08-18T22:34:08.527Z,18.88
2022-08-18T22:36:41.828Z,18.83
2022-08-18T22:39:14.348Z,18.58
2022-08-18T22:41:46.252Z,18.40
2022-08-18T22:44:15.516Z,18.26
2022-08-18T22:46:44.587Z,18.31
2022-08-18T22:49:13.801Z,18.47
2022-08-18T22:51:45.399Z,18.40
2022-08-18T22:54:14.931Z,18.44
2022-08-18T22:56:53.896Z,18.56
2022-08-18T22:59:26.848Z,18.33
2022-08-18T23:01:58.478Z,18.30
2022-08-18T23:04:28.182Z,18.25
2022-08-18T23:07:00.461Z,18.19
2022-08-18T23:09:32.559Z,18.11
2022-08-18T23:12:05.475Z,18.27
2022-08-18T23:14:35.854Z,18.23
2022-08-18T23:17:07.425Z,18.13
2022-08-18T23:19:36.607Z,18.11
2022-08-18T23:22:09.004Z,18.04
2022-08-18T23:24:38.651Z,18.08
2022-08-18T23:27:08.800Z,18.13
2022-08-18T23:29:39.823Z,18.17
2022-08-18T23:32:09.179Z,18.21
2022-08-18T23:34:38.307Z,18.21
2022-08-18T23:37:10.518Z,18.23
2022-08-18T23:39:40.115Z,18.17
2022-08-18T23:42:13.198Z,18.25
2022-08-18T23:44:43.490Z,18.17
2022-08-18T23:47:12.695Z,18.05
2022-08-18T23:49:42.429Z,18.06
2022-08-18T23:52:13.101Z,17.79
2022-08-18T23:54:42.350Z,17.72
2022-08-18T23:57:11.491Z,17.62
2022-08-18T23:59:40.610Z,17.60
